createdAt,value
2023-09-06T00:01:28.776Z,99496.02
2023-09-06T00:04:26.306Z,99492.55
2023-09-06T00:07:20.711Z,99497.95
2023-09-06T00:10:16.029Z,99495.20
2023-09-06T00:13:11.057Z,99501.42
2023-09-06T00:16:06.060Z,99502.69
2023-09-06T00:19:01.222Z,99504.05
2023-09-06T00:21:55.465Z,99506.52
2023-09-06T00:24:50.099Z,99511.85
2023-09-06T00:27:44.357Z,99515.61
2023-09-06T00:30:39.226Z,99516.26
2023-09-06T00:33:34.862Z,99521.83
2023-09-06T00:36:30.329Z,99520.79
2023-09-06T00:39:24.767Z,99525.39
2023-09-06T00:42:18.971Z,99522.99
2023-09-06T00:45:13.969Z,99521.33
2023-09-06T00:48:09.964Z,99522.89
2023-09-06T00:51:07.251Z,99521.13
2023-09-06T00:54:02.116Z,99518.67
2023-09-06T00:56:56.979Z,99523.11
2023-09-06T00:59:52.609Z,99516.83
2023-09-06T01:02:48.317Z,99518.02
2023-09-06T01:05:48.640Z,99515.70
2023-09-06T01:08:48.397Z,99513.08
2023-09-06T01:11:42.675Z,99515.21
2023-09-06T01:14:39.468Z,99518.42
2023-09-06T01:17:37.611Z,99517.00
2023-09-06T01:20:40.429Z,99516.25
2023-09-06T01:23:42.372Z,99516.06
2023-09-06T01:26:22.548Z,99515.70
2023-09-06T01:29:16.605Z,99515.07
2023-09-06T01:32:11.354Z,99505.52
2023-09-06T01:35:08.216Z,99505.99
2023-09-06T01:38:02.223Z,99500.89
2023-09-06T01:40:57.016Z,99495.55
2023-09-06T01:43:51.510Z,99497.80
2023-09-06T01:46:47.104Z,99497.45
2023-09-06T01:49:41.455Z,99493.16
2023-09-06T01:52:37.856Z,99493.21
2023-09-06T01:55:31.773Z,99490.29
2023-09-06T01:58:26.133Z,99489.23
2023-09-06T02:01:21.045Z,99489.31
2023-09-06T02:04:15.120Z,99486.38
2023-09-06T02:07:09.290Z,99490.63
2023-09-06T02:10:03.880Z,99491.20
2023-09-06T02:12:58.101Z,99492.08
2023-09-06T02:15:52.355Z,99494.23
2023-09-06T02:18:46.486Z,99495.18
2023-09-06T02:21:41.140Z,99496.34
2023-09-06T02:24:35.306Z,99488.72
2023-09-06T02:27:29.206Z,99489.01
2023-09-06T02:30:23.348Z,99491.70
2023-09-06T02:33:18.011Z,99488.95
2023-09-06T02:36:12.397Z,99485.16
2023-09-06T02:39:07.769Z,99486.65
2023-09-06T02:42:01.770Z,99493.48
2023-09-06T02:44:56.180Z,99497.98
2023-09-06T02:47:52.698Z,99503.90
2023-09-06T02:50:47.146Z,99507.70
2023-09-06T02:53:46.872Z,99507.59
2023-09-06T02:56:41.371Z,99508.76
2023-09-06T02:59:35.387Z,99507.56
2023-09-06T03:02:30.078Z,99506.75
2023-09-06T03:05:24.414Z,99506.15
2023-09-06T03:08:18.689Z,99504.16
2023-09-06T03:11:16.068Z,99505.33
2023-09-06T03:14:10.169Z,99502.98
2023-09-06T03:17:09.835Z,99503.05
2023-09-06T03:20:19.709Z,99503.14
2023-09-06T03:23:20.280Z,99506.40
2023-09-06T03:26:25.642Z,99508.48
2023-09-06T03:29:21.553Z,99512.42
2023-09-06T03:32:16.233Z,99515.65
2023-09-06T03:35:11.633Z,99517.33
2023-09-06T03:38:09.763Z,99507.94
2023-09-06T03:41:08.407Z,99505.98
2023-09-06T03:44:02.857Z,99502.26
2023-09-06T03:46:58.793Z,99505.61
2023-09-06T03:49:53.335Z,99501.92
2023-09-06T03:52:47.597Z,99505.62
2023-09-06T03:55:43.150Z,99505.79
2023-09-06T03:58:37.876Z,99507.91
2023-09-06T04:01:34.225Z,99508.02
2023-09-06T04:04:29.982Z,99500.50
2023-09-06T04:07:26.387Z,99499.23
2023-09-06T04:10:22.742Z,99507.77
2023-09-06T04:13:18.069Z,99506.41
2023-09-06T04:16:12.174Z,99508.80
2023-09-06T04:19:07.638Z,99510.27
2023-09-06T04:22:03.204Z,99509.84
2023-09-06T04:24:57.565Z,99514.66
2023-09-06T04:27:56.331Z,99511.82
2023-09-06T04:30:50.435Z,99516.64
2023-09-06T04:33:44.629Z,99519.70
2023-09-06T04:36:38.926Z,99520.94
2023-09-06T04:39:35.408Z,99527.75
2023-09-06T04:42:29.792Z,99534.24
2023-09-06T04:45:24.075Z,99530.48
2023-09-06T04:48:19.263Z,99533.83
2023-09-06T04:51:15.854Z,99537.09
2023-09-06T04:54:10.885Z,99536.09
2023-09-06T04:57:05.840Z,99536.73
2023-09-06T05:00:01.737Z,99534.02
2023-09-06T05:02:56.382Z,99537.66
2023-09-06T05:05:52.412Z,99534.42
2023-09-06T05:08:47.053Z,99539.42
2023-09-06T05:11:41.100Z,99541.45
2023-09-06T05:14:35.512Z,99540.52
2023-09-06T05:17:30.197Z,99540.64
2023-09-06T05:20:34.343Z,99541.72
2023-09-06T05:23:26.786Z,99537.47
2023-09-06T05:26:21.969Z,99532.54
2023-09-06T05:29:16.788Z,99536.41
2023-09-06T05:32:12.486Z,99541.95
2023-09-06T05:35:07.599Z,99541.33
2023-09-06T05:38:02.026Z,99540.29
2023-09-06T05:40:45.689Z,99545.01
2023-09-06T05:43:39.851Z,99547.81
2023-09-06T05:46:34.420Z,99552.64
2023-09-06T05:49:29.820Z,99553.29
2023-09-06T05:52:24.370Z,99549.66
2023-09-06T05:55:18.597Z,99555.52
2023-09-06T05:58:13.107Z,99554.40
2023-09-06T06:01:10.291Z,99548.20
2023-09-06T06:04:05.680Z,99552.61
2023-09-06T06:06:59.798Z,99558.83
2023-09-06T06:09:53.980Z,99555.52
2023-09-06T06:12:48.709Z,99558.25
2023-09-06T06:15:43.719Z,99556.64
2023-09-06T06:18:37.896Z,99560.73
2023-09-06T06:21:32.969Z,99559.42
2023-09-06T06:24:27.541Z,99564.23
2023-09-06T06:27:21.650Z,99562.80
2023-09-06T06:30:16.527Z,99560.24
2023-09-06T06:33:11.337Z,99558.79
2023-09-06T06:36:06.138Z,99558.44
2023-09-06T06:39:00.200Z,99557.63
2023-09-06T06:41:54.855Z,99555.29
2023-09-06T06:44:51.724Z,99554.44
2023-09-06T06:47:46.306Z,99547.51
2023-09-06T06:50:40.470Z,99550.29
2023-09-06T06:53:35.503Z,99545.31
2023-09-06T06:56:29.772Z,99550.05
2023-09-06T06:59:23.754Z,99551.19
2023-09-06T07:02:18.299Z,99551.58
2023-09-06T07:05:14.009Z,99552.29
2023-09-06T07:08:08.934Z,99555.11
2023-09-06T07:11:04.673Z,99552.95
2023-09-06T07:13:59.476Z,99549.36
2023-09-06T07:16:53.698Z,99556.46
2023-09-06T07:19:48.281Z,99553.02
2023-09-06T07:22:42.398Z,99558.16
2023-09-06T07:25:36.826Z,99552.73
2023-09-06T07:28:51.841Z,99558.00
2023-09-06T07:31:46.749Z,99557.66
2023-09-06T07:34:41.095Z,99558.95
2023-09-06T07:37:35.563Z,99560.16
2023-09-06T07:40:30.744Z,99554.50
2023-09-06T07:43:24.968Z,99557.27
2023-09-06T07:46:19.343Z,99552.70
2023-09-06T07:49:13.458Z,99551.64
2023-09-06T07:52:10.345Z,99545.96
2023-09-06T07:55:05.578Z,99548.34
2023-09-06T07:58:03.287Z,99551.75
2023-09-06T08:03:59.556Z,99550.04
2023-09-06T08:06:57.020Z,99548.92
2023-09-06T08:09:51.898Z,99552.65
2023-09-06T08:12:33.494Z,99552.25
2023-09-06T08:15:28.751Z,99551.98
2023-09-06T08:18:23.061Z,99554.04
2023-09-06T08:21:17.839Z,99553.27
2023-09-06T08:24:12.117Z,99552.50
2023-09-06T08:26:50.036Z,99551.45
2023-09-06T08:29:44.849Z,99550.02
2023-09-06T08:32:39.221Z,99552.86
2023-09-06T08:35:33.617Z,99552.35
2023-09-06T08:38:27.751Z,99548.15
2023-09-06T08:41:22.872Z,99547.73
2023-09-06T08:44:21.408Z,99554.60
2023-09-06T08:47:19.596Z,99557.53
2023-09-06T08:50:14.695Z,99560.60
2023-09-06T08:53:12.075Z,99563.30
2023-09-06T08:56:05.858Z,99563.36
2023-09-06T08:58:59.989Z,99558.81
2023-09-06T09:01:53.991Z,99554.83
2023-09-06T09:04:48.190Z,99550.63
2023-09-06T09:07:42.533Z,99548.80
2023-09-06T09:10:37.142Z,99544.02
2023-09-06T09:13:33.308Z,99548.52
2023-09-06T09:16:27.576Z,99550.56
2023-09-06T09:19:24.116Z,99552.77
2023-09-06T09:22:18.027Z,99556.63
2023-09-06T09:25:16.046Z,99557.60
2023-09-06T09:28:10.665Z,99560.61
2023-09-06T09:31:06.499Z,99562.31
2023-09-06T09:34:02.038Z,99563.82
2023-09-06T09:36:56.790Z,99565.67
2023-09-06T09:39:50.930Z,99563.42
2023-09-06T09:42:55.200Z,99564.67
2023-09-06T09:45:50.474Z,99567.08
2023-09-06T09:48:46.185Z,99570.63
2023-09-06T09:51:41.455Z,99570.39
2023-09-06T09:54:38.374Z,99570.23
2023-09-06T09:57:33.847Z,99568.70
2023-09-06T10:00:29.901Z,99568.06
2023-09-06T10:03:26.940Z,99571.36
2023-09-06T10:06:23.419Z,99568.98
2023-09-06T10:09:19.566Z,99567.31
2023-09-06T10:12:15.837Z,99563.63
2023-09-06T10:15:14.753Z,99570.95
2023-09-06T10:18:10.008Z,99569.08
2023-09-06T10:21:05.498Z,99565.77
2023-09-06T10:24:00.634Z,99561.69
2023-09-06T10:26:56.827Z,99560.80
2023-09-06T10:30:05.021Z,99558.71
2023-09-06T10:32:59.273Z,99560.48
2023-09-06T10:36:04.184Z,99558.15
2023-09-06T10:39:17.580Z,99556.27
2023-09-06T10:42:34.075Z,99551.55
2023-09-06T10:45:28.270Z,99546.11
2023-09-06T10:48:31.208Z,99544.66
2023-09-06T10:51:25.352Z,99543.65
2023-09-06T10:54:24.139Z,99542.85
2023-09-06T10:57:18.606Z,99541.75
2023-09-06T11:00:19.728Z,99542.39
2023-09-06T11:03:23.286Z,99537.70
2023-09-06T11:06:17.351Z,99538.65
2023-09-06T11:09:12.093Z,99539.23
2023-09-06T11:12:07.276Z,99540.41
2023-09-06T11:15:01.114Z,99540.68
2023-09-06T11:18:01.093Z,99538.29
2023-09-06T11:20:55.253Z,99535.73
2023-09-06T11:23:54.417Z,99538.35
2023-09-06T11:26:48.440Z,99535.02
2023-09-06T11:29:44.093Z,99537.02
2023-09-06T11:32:38.069Z,99531.23
2023-09-06T11:35:39.650Z,99524.07
2023-09-06T11:38:36.479Z,99528.52
2023-09-06T11:41:30.567Z,99523.92
2023-09-06T11:44:25.079Z,99521.47
2023-09-06T11:47:21.450Z,99522.45
2023-09-06T11:50:20.384Z,99518.83
2023-09-06T11:53:15.061Z,99516.63
2023-09-06T11:56:12.671Z,99512.48
2023-09-06T11:59:08.244Z,99511.90
2023-09-06T12:02:04.796Z,99510.78
2023-09-06T12:05:01.838Z,99510.09
2023-09-06T12:07:56.901Z,99509.02
2023-09-06T12:10:53.692Z,99507.72
2023-09-06T12:13:48.529Z,99502.19
2023-09-06T12:16:43.484Z,99500.52
2023-09-06T12:19:38.497Z,99504.02
2023-09-06T12:22:32.289Z,99501.62
2023-09-06T12:25:26.227Z,99499.75
2023-09-06T12:28:20.164Z,99499.27
2023-09-06T12:31:17.894Z,99500.90
2023-09-06T12:34:11.985Z,99500.52
2023-09-06T12:37:05.971Z,99496.78
2023-09-06T12:39:49.849Z,99497.46
2023-09-06T12:42:47.886Z,99499.00
2023-09-06T12:45:40.650Z,99497.58
2023-09-06T12:48:35.730Z,99493.50
2023-09-06T12:51:29.896Z,99487.85
2023-09-06T12:54:23.901Z,99486.97
2023-09-06T12:57:18.652Z,99479.83
2023-09-06T13:00:16.088Z,99481.80
2023-09-06T13:03:10.375Z,99481.55
2023-09-06T13:06:07.812Z,99478.73
2023-09-06T13:09:01.861Z,99476.27
2023-09-06T13:11:56.484Z,99472.31
2023-09-06T13:14:50.543Z,99466.90
2023-09-06T13:17:44.662Z,99459.89
2023-09-06T13:20:39.301Z,99460.45
2023-09-06T13:23:33.865Z,99457.79
2023-09-06T13:26:28.364Z,99456.30
2023-09-06T13:29:22.401Z,99457.93
2023-09-06T13:32:16.588Z,99453.69
2023-09-06T13:35:12.779Z,99454.85
2023-09-06T13:38:07.271Z,99451.77
2023-09-06T13:41:01.596Z,99444.92
2023-09-06T13:43:55.560Z,99441.71
2023-09-06T13:46:50.346Z,99443.06
2023-09-06T13:49:44.555Z,99441.14
2023-09-06T13:52:38.609Z,99441.98
2023-09-06T13:55:33.024Z,99437.14
2023-09-06T13:58:28.301Z,99437.48
2023-09-06T14:01:22.810Z,99429.11
2023-09-06T14:04:17.158Z,99429.39
2023-09-06T14:07:11.995Z,99433.62
2023-09-06T14:10:06.872Z,99427.37
2023-09-06T14:13:01.496Z,99426.27
2023-09-06T14:15:55.978Z,99426.45
2023-09-06T14:18:50.033Z,99422.44
2023-09-06T14:21:47.029Z,99415.21
2023-09-06T14:24:41.372Z,99414.60
2023-09-06T14:27:35.275Z,99410.09
2023-09-06T14:30:29.499Z,99408.77
2023-09-06T14:33:23.338Z,99408.83
2023-09-06T14:36:17.601Z,99408.73
2023-09-06T14:39:11.586Z,99407.79
2023-09-06T14:42:05.949Z,99409.72
2023-09-06T14:45:00.227Z,99410.40
2023-09-06T14:47:54.543Z,99405.23
2023-09-06T14:50:48.614Z,99405.64
2023-09-06T14:53:42.646Z,99401.27
2023-09-06T14:56:37.997Z,99398.98
2023-09-06T14:59:32.746Z,99396.72
2023-09-06T15:02:26.720Z,99398.76
2023-09-06T15:05:22.602Z,99399.84
2023-09-06T15:08:16.471Z,99396.66
2023-09-06T15:11:10.525Z,99396.85
2023-09-06T15:14:06.039Z,99394.77
2023-09-06T15:17:00.141Z,99398.40
2023-09-06T15:19:54.074Z,99399.76
2023-09-06T15:22:47.963Z,99399.25
2023-09-06T15:25:42.351Z,99404.23
2023-09-06T15:28:36.283Z,99402.23
2023-09-06T15:31:32.004Z,99401.48
2023-09-06T15:34:28.497Z,99404.09
2023-09-06T15:37:22.718Z,99409.52
2023-09-06T15:40:17.111Z,99403.48
2023-09-06T15:43:11.333Z,99404.30
2023-09-06T15:46:05.366Z,99407.83
2023-09-06T15:48:59.411Z,99402.91
2023-09-06T15:51:53.556Z,99403.80
2023-09-06T15:54:47.693Z,99405.85
2023-09-06T15:57:41.793Z,99415.08
2023-09-06T16:00:35.679Z,99409.43
2023-09-06T16:03:29.898Z,99410.77
2023-09-06T16:06:27.057Z,99408.59
2023-09-06T16:09:21.680Z,99411.35
2023-09-06T16:12:17.079Z,99410.97
2023-09-06T16:15:13.039Z,99417.15
2023-09-06T16:17:50.141Z,99417.32
2023-09-06T16:20:47.026Z,99416.60
2023-09-06T16:23:41.212Z,99418.46
2023-09-06T16:26:35.146Z,99420.20
2023-09-06T16:29:29.223Z,99423.06
2023-09-06T16:32:23.078Z,99432.13
2023-09-06T16:35:17.062Z,99434.45
2023-09-06T16:38:11.371Z,99432.52
2023-09-06T16:41:05.393Z,99434.75
2023-09-06T16:43:59.424Z,99438.12
2023-09-06T16:46:53.377Z,99436.81
2023-09-06T16:49:48.474Z,99437.55
2023-09-06T16:52:42.568Z,99436.23
2023-09-06T16:55:36.819Z,99439.70
2023-09-06T16:58:30.797Z,99444.33
2023-09-06T17:01:24.936Z,99447.54
2023-09-06T17:04:21.270Z,99451.20
2023-09-06T17:07:15.615Z,99454.20
2023-09-06T17:09:56.995Z,99451.83
2023-09-06T17:12:51.821Z,99450.60
2023-09-06T17:15:45.909Z,99456.18
2023-09-06T17:18:44.654Z,99460.07
2023-09-06T17:21:40.150Z,99458.96
2023-09-06T17:24:36.248Z,99456.93
2023-09-06T17:27:31.233Z,99465.62
2023-09-06T17:30:26.374Z,99466.44
2023-09-06T17:33:20.382Z,99465.32
2023-09-06T17:36:14.777Z,99475.73
2023-09-06T17:39:10.239Z,99476.86
2023-09-06T17:42:06.430Z,99479.79
2023-09-06T17:45:02.078Z,99485.21
2023-09-06T17:47:48.128Z,99480.88
2023-09-06T17:50:48.880Z,99481.94
2023-09-06T17:53:42.997Z,99480.53
2023-09-06T17:56:37.612Z,99484.71
2023-09-06T17:59:33.285Z,99486.77
2023-09-06T18:02:27.321Z,99490.73
2023-09-06T18:05:23.384Z,99491.59
2023-09-06T18:08:18.619Z,99492.03
2023-09-06T18:11:12.973Z,99495.60
2023-09-06T18:14:09.225Z,99497.20
2023-09-06T18:17:03.386Z,99501.73
2023-09-06T18:19:37.308Z,99505.08
2023-09-06T18:22:31.303Z,99504.73
2023-09-06T18:25:25.208Z,99508.65
2023-09-06T18:28:19.226Z,99508.91
2023-09-06T18:31:15.809Z,99512.11
2023-09-06T18:34:10.060Z,99512.63
2023-09-06T18:37:09.442Z,99518.09
2023-09-06T18:40:13.935Z,99519.08
2023-09-06T18:43:11.123Z,99521.20
2023-09-06T18:46:06.092Z,99522.91
2023-09-06T18:49:00.084Z,99521.73
2023-09-06T18:51:36.984Z,99521.16
2023-09-06T18:54:31.182Z,99527.73
2023-09-06T18:57:25.266Z,99525.89
2023-09-06T19:00:23.279Z,99525.33
2023-09-06T19:03:19.537Z,99527.88
2023-09-06T19:05:58.993Z,99532.11
2023-09-06T19:08:53.050Z,99533.40
2023-09-06T19:11:47.261Z,99538.67
2023-09-06T19:14:41.270Z,99539.01
2023-09-06T19:17:35.993Z,99537.20
2023-09-06T19:20:30.450Z,99536.79
2023-09-06T19:23:24.313Z,99532.46
2023-09-06T19:26:18.484Z,99529.36
2023-09-06T19:29:12.369Z,99527.62
2023-09-06T19:32:06.756Z,99526.16
2023-09-06T19:35:00.618Z,99529.49
2023-09-06T19:37:54.773Z,99529.95
2023-09-06T19:40:50.805Z,99526.54
2023-09-06T19:43:44.886Z,99528.84
2023-09-06T19:46:39.273Z,99530.32
2023-09-06T19:49:33.960Z,99530.05
2023-09-06T19:52:27.911Z,99531.98
2023-09-06T19:55:23.293Z,99534.00
2023-09-06T19:58:17.444Z,99536.48
2023-09-06T20:01:11.787Z,99537.83
2023-09-06T20:04:06.890Z,99537.15
2023-09-06T20:07:00.897Z,99538.02
2023-09-06T20:09:54.845Z,99538.67
2023-09-06T20:12:48.882Z,99539.39
2023-09-06T20:15:42.933Z,99541.52
2023-09-06T20:18:37.067Z,99540.63
2023-09-06T20:21:31.308Z,99544.21
2023-09-06T20:27:19.187Z,99539.79
2023-09-06T20:30:15.306Z,99535.69
2023-09-06T20:33:09.622Z,99529.91
2023-09-06T20:36:05.849Z,99532.38
2023-09-06T20:39:00.097Z,99532.63
2023-09-06T20:41:54.096Z,99533.70
2023-09-06T20:44:48.132Z,99533.23
2023-09-06T20:47:32.034Z,99531.34
2023-09-06T20:50:25.915Z,99531.75
2023-09-06T20:53:19.806Z,99530.98
2023-09-06T20:56:14.171Z,99534.05
2023-09-06T20:59:08.398Z,99535.58
2023-09-06T21:02:02.416Z,99534.74
2023-09-06T21:04:56.778Z,99534.59
2023-09-06T21:07:51.044Z,99532.42
2023-09-06T21:10:46.382Z,99535.42
2023-09-06T21:13:40.687Z,99536.05
2023-09-06T21:16:35.310Z,99535.56
2023-09-06T21:19:30.147Z,99533.34
2023-09-06T21:22:24.199Z,99534.98
2023-09-06T21:25:18.533Z,99539.72
2023-09-06T21:28:14.425Z,99538.41
2023-09-06T21:31:08.568Z,99537.88
2023-09-06T21:34:03.749Z,99537.81
2023-09-06T21:36:57.901Z,99536.98
2023-09-06T21:39:52.472Z,99537.82
2023-09-06T21:42:46.735Z,99540.73
2023-09-06T21:45:42.581Z,99539.93
2023-09-06T21:48:37.308Z,99541.86
2023-09-06T21:51:31.614Z,99546.29
2023-09-06T21:54:25.533Z,99549.45
2023-09-06T21:57:19.587Z,99554.13
2023-09-06T22:00:22.454Z,99555.42
2023-09-06T22:03:16.924Z,99556.52
2023-09-06T22:06:11.284Z,99558.83
2023-09-06T22:09:05.480Z,99556.20
2023-09-06T22:11:59.856Z,99559.48
2023-09-06T22:14:55.051Z,99562.15
2023-09-06T22:17:48.991Z,99567.71
2023-09-06T22:20:44.416Z,99569.70
2023-09-06T22:23:38.273Z,99570.97
2023-09-06T22:26:32.302Z,99572.89
2023-09-06T22:29:26.177Z,99577.50
2023-09-06T22:32:20.417Z,99581.44
2023-09-06T22:35:14.378Z,99587.67
2023-09-06T22:38:08.554Z,99588.85
2023-09-06T22:41:02.335Z,99586.05
2023-09-06T22:43:56.446Z,99582.59
2023-09-06T22:46:50.457Z,99583.80
2023-09-06T22:49:44.993Z,99585.02
2023-09-06T22:52:39.492Z,99586.48
2023-09-06T22:55:33.668Z,99585.90
2023-09-06T22:58:27.981Z,99585.84
2023-09-06T23:01:21.905Z,99586.79
2023-09-06T23:04:16.421Z,99585.82
2023-09-06T23:07:10.755Z,99587.64
2023-09-06T23:10:05.672Z,99583.99
2023-09-06T23:13:01.357Z,99585.42
2023-09-06T23:15:56.424Z,99586.40
2023-09-06T23:18:51.393Z,99585.66
2023-09-06T23:21:45.499Z,99589.48
2023-09-06T23:24:41.680Z,99583.10
2023-09-06T23:27:35.934Z,99581.36
2023-09-06T23:30:32.169Z,99581.70
2023-09-06T23:33:34.662Z,99581.63
2023-09-06T23:36:29.957Z,99581.04
2023-09-06T23:39:24.216Z,99584.27
2023-09-06T23:42:21.029Z,99580.64
2023-09-06T23:45:15.405Z,99576.14
2023-09-06T23:48:10.437Z,99578.55
2023-09-06T23:51:04.450Z,99582.02
2023-09-06T23:53:58.270Z,99575.85
2023-09-06T23:56:52.362Z,99575.26
2023-09-06T23:59:46.495Z,99578.90
